Terminal Aerodrome Forecast
Issued by NWS

Home | Current Version | Previous Version | Text Only | Print | Product List | Glossary On
Versions: 1 2 3 4 5 6 7 8 9 10 11 12 13 14 15 16
601
FTUS45 KRIW 050414 AAA
TAFCPR
TAF AMD
KCPR 050414Z 0504/0524 21018KT P6SM SCT070
     FM051000 30011KT P6SM VCSH SCT025 BKN060
     FM051500 27007KT P6SM SCT060
     FM051900 22020G30KT P6SM SCT250=

USA.gov is the U.S. government's official web portal to all federal, state and local government web resources and services.